createdAt,value
2018-07-29T00:04:31.817Z,5.20
2018-07-29T00:09:34.945Z,5.53
2018-07-29T00:14:38.086Z,4.93
2018-07-29T00:19:41.238Z,5.27
2018-07-29T00:24:44.357Z,5.07
2018-07-29T00:29:47.580Z,4.33
2018-07-29T00:34:50.796Z,4.87
2018-07-29T00:39:53.928Z,6.70
2018-07-29T00:44:57.068Z,5.40
2018-07-29T00:50:00.194Z,5.80
2018-07-29T00:55:03.324Z,4.50
2018-07-29T01:00:07.768Z,5.20
2018-07-29T01:05:10.908Z,4.77
2018-07-29T01:10:14.039Z,4.70
2018-07-29T01:15:17.149Z,6.20
2018-07-29T01:20:20.289Z,6.73
2018-07-29T01:25:23.396Z,6.53
2018-07-29T01:30:26.517Z,7.90
2018-07-29T01:35:29.657Z,5.10
2018-07-29T01:40:32.788Z,4.10
2018-07-29T01:45:35.897Z,5.30
2018-07-29T01:50:39.021Z,7.07
2018-07-29T01:55:42.168Z,7.77
2018-07-29T02:00:45.285Z,5.97
2018-07-29T02:05:48.572Z,5.73
2018-07-29T02:10:51.721Z,5.97
2018-07-29T02:15:54.829Z,7.23
2018-07-29T02:20:57.935Z,7.53
2018-07-29T02:26:01.048Z,7.90
2018-07-29T02:31:04.160Z,5.40
2018-07-29T02:36:07.406Z,7.20
2018-07-29T02:41:10.521Z,6.87
2018-07-29T02:46:13.653Z,8.20
2018-07-29T02:51:16.616Z,6.70
2018-07-29T02:56:19.747Z,8.27
2018-07-29T03:01:22.904Z,7.70
2018-07-29T03:06:26.133Z,8.50
2018-07-29T03:11:29.290Z,5.03
2018-07-29T03:16:32.371Z,6.53
2018-07-29T03:21:35.493Z,5.70
2018-07-29T03:26:38.599Z,6.13
2018-07-29T03:31:41.686Z,5.10
2018-07-29T03:36:44.789Z,6.77
2018-07-29T03:41:47.926Z,5.40
2018-07-29T03:46:51.031Z,5.70
2018-07-29T03:51:54.127Z,4.40
2018-07-29T03:56:57.228Z,5.60
2018-07-29T04:02:00.307Z,4.20
2018-07-29T04:07:03.510Z,4.87
2018-07-29T04:12:06.715Z,7.10
2018-07-29T04:17:09.695Z,7.00
2018-07-29T04:22:12.789Z,7.20
2018-07-29T04:27:15.897Z,6.57
2018-07-29T04:32:19.017Z,6.50
2018-07-29T04:37:22.115Z,6.97
2018-07-29T04:42:25.211Z,6.03
2018-07-29T04:47:28.300Z,6.30
2018-07-29T04:52:31.394Z,5.87
2018-07-29T04:57:34.463Z,4.00
2018-07-29T05:02:37.567Z,7.30
2018-07-29T05:07:40.671Z,4.90
2018-07-29T05:12:43.796Z,7.00
2018-07-29T05:17:46.933Z,7.40
2018-07-29T05:22:50.109Z,3.50
2018-07-29T05:27:53.347Z,4.90
2018-07-29T05:32:56.468Z,5.60
2018-07-29T05:37:59.580Z,5.70
2018-07-29T05:43:02.713Z,5.27
2018-07-29T05:48:05.794Z,4.80
2018-07-29T05:53:08.913Z,4.70
2018-07-29T05:58:12.040Z,3.53
2018-07-29T06:03:15.158Z,4.00
2018-07-29T06:08:18.418Z,2.90
2018-07-29T06:13:21.541Z,4.80
2018-07-29T06:18:24.649Z,4.30
2018-07-29T06:23:27.744Z,4.17
2018-07-29T06:28:30.872Z,3.60
2018-07-29T06:33:33.971Z,3.43
2018-07-29T06:38:37.072Z,3.03
2018-07-29T06:43:40.176Z,3.53
2018-07-29T06:48:43.295Z,3.30
2018-07-29T06:53:46.428Z,3.57
2018-07-29T06:58:49.534Z,3.30
2018-07-29T07:03:52.607Z,2.37
2018-07-29T07:08:55.712Z,2.47
2018-07-29T07:13:58.803Z,3.20
2018-07-29T07:19:01.904Z,2.97
2018-07-29T07:24:05.034Z,3.63
2018-07-29T07:29:08.135Z,2.50
2018-07-29T07:34:11.239Z,2.10
2018-07-29T07:39:14.379Z,1.80
2018-07-29T07:44:17.484Z,2.30
2018-07-29T07:49:20.596Z,1.90
2018-07-29T07:54:23.693Z,1.70
2018-07-29T07:59:26.803Z,2.00
2018-07-29T08:04:29.899Z,1.70
2018-07-29T08:09:33.038Z,1.50
2018-07-29T08:14:36.112Z,2.33
2018-07-29T08:19:39.003Z,1.83
2018-07-29T08:24:42.115Z,1.77
2018-07-29T08:29:45.230Z,1.80
2018-07-29T08:34:48.180Z,2.33
2018-07-29T08:39:51.366Z,1.80
2018-07-29T08:44:54.500Z,2.10
2018-07-29T08:49:57.735Z,2.30
2018-07-29T08:55:00.851Z,1.80
2018-07-29T09:00:04.012Z,1.50
2018-07-29T09:05:07.124Z,1.90
2018-07-29T09:10:10.785Z,1.97
2018-07-29T09:15:15.119Z,1.60
2018-07-29T09:20:18.283Z,2.20
2018-07-29T09:25:21.475Z,1.33
2018-07-29T09:30:24.601Z,2.10
2018-07-29T09:35:27.676Z,1.60
2018-07-29T09:40:30.795Z,1.67
2018-07-29T09:45:33.956Z,2.20
2018-07-29T09:50:37.535Z,2.47
2018-07-29T09:55:40.684Z,1.53
2018-07-29T10:00:45.216Z,1.63
2018-07-29T10:05:48.304Z,1.20
2018-07-29T10:10:51.415Z,1.93
2018-07-29T10:15:55.674Z,1.87
2018-07-29T10:20:58.774Z,1.33
2018-07-29T10:26:01.889Z,1.80
2018-07-29T10:31:05.096Z,1.80
2018-07-29T10:36:08.168Z,1.80
2018-07-29T10:41:11.433Z,1.30
2018-07-29T10:46:14.513Z,1.37
2018-07-29T10:51:17.662Z,1.30
2018-07-29T10:56:20.784Z,1.87
2018-07-29T11:01:23.896Z,1.40
2018-07-29T11:06:27.037Z,1.70
2018-07-29T11:11:30.181Z,1.87
2018-07-29T11:16:33.267Z,1.50
2018-07-29T11:21:36.386Z,1.87
2018-07-29T11:26:39.288Z,1.80
2018-07-29T11:31:42.176Z,1.40
2018-07-29T11:36:45.324Z,1.47
2018-07-29T11:41:48.612Z,1.53
2018-07-29T11:46:51.765Z,1.80
2018-07-29T11:51:54.976Z,1.30
2018-07-29T11:56:58.044Z,1.77
2018-07-29T12:02:01.163Z,1.90
2018-07-29T12:07:04.312Z,2.10
2018-07-29T12:12:07.438Z,2.10
2018-07-29T12:17:10.604Z,1.77
2018-07-29T12:22:13.676Z,1.70
2018-07-29T12:27:16.796Z,2.47
2018-07-29T12:32:19.901Z,1.43
2018-07-29T12:37:23.373Z,2.07
2018-07-29T12:42:26.267Z,2.33
2018-07-29T12:47:29.376Z,2.10
2018-07-29T12:52:32.475Z,2.33
2018-07-29T12:57:35.591Z,2.20
2018-07-29T13:02:38.707Z,2.67
2018-07-29T13:07:41.852Z,2.30
2018-07-29T13:12:44.976Z,2.37
2018-07-29T13:17:48.099Z,3.10
2018-07-29T13:22:51.195Z,2.23
2018-07-29T13:27:54.314Z,2.67
2018-07-29T13:32:57.456Z,3.03
2018-07-29T13:38:00.611Z,2.73
2018-07-29T13:43:03.839Z,2.60
2018-07-29T13:48:06.949Z,2.50
2018-07-29T13:53:10.120Z,2.63
2018-07-29T13:58:13.256Z,2.57
2018-07-29T14:03:16.436Z,2.87
2018-07-29T14:08:19.579Z,3.30
2018-07-29T14:13:22.704Z,2.90
2018-07-29T14:18:25.863Z,3.07
2018-07-29T14:23:28.996Z,2.90
2018-07-29T14:28:32.091Z,2.27
2018-07-29T14:33:35.205Z,3.60
2018-07-29T14:38:38.331Z,3.10
2018-07-29T14:43:41.429Z,3.03
2018-07-29T14:48:44.551Z,2.70
2018-07-29T14:53:47.737Z,2.70
2018-07-29T14:58:50.950Z,2.60
2018-07-29T15:03:54.059Z,3.23
2018-07-29T15:08:57.184Z,3.17
2018-07-29T15:14:00.299Z,3.30
2018-07-29T15:19:03.409Z,2.87
2018-07-29T15:24:06.516Z,3.10
2018-07-29T15:29:09.698Z,2.80
2018-07-29T15:34:12.816Z,3.60
2018-07-29T15:39:15.947Z,3.23
2018-07-29T15:44:19.145Z,3.03
2018-07-29T15:49:22.246Z,3.30
2018-07-29T15:54:25.436Z,3.03
2018-07-29T15:59:28.532Z,2.93
2018-07-29T16:04:31.654Z,3.03
2018-07-29T16:09:34.839Z,3.40
2018-07-29T16:14:37.951Z,2.93
2018-07-29T16:19:41.061Z,3.23
2018-07-29T16:24:44.313Z,3.30
2018-07-29T16:29:48.037Z,3.23
2018-07-29T16:34:50.988Z,3.47
2018-07-29T16:39:54.312Z,2.97
2018-07-29T16:44:57.514Z,3.07
2018-07-29T16:50:00.677Z,2.67
2018-07-29T16:55:03.815Z,2.70
2018-07-29T17:00:07.089Z,4.00
2018-07-29T17:05:10.275Z,3.43
2018-07-29T17:10:13.409Z,3.63
2018-07-29T17:15:16.504Z,3.60
2018-07-29T17:20:19.705Z,2.70
2018-07-29T17:25:22.779Z,3.43
2018-07-29T17:30:25.887Z,3.23
2018-07-29T17:35:28.992Z,3.00
2018-07-29T17:40:32.222Z,3.23
2018-07-29T17:45:35.329Z,3.07
2018-07-29T17:50:38.555Z,3.07
2018-07-29T17:55:41.660Z,3.53
2018-07-29T18:00:44.747Z,3.20
2018-07-29T18:05:47.940Z,3.23
2018-07-29T18:10:51.057Z,3.13
2018-07-29T18:15:54.131Z,2.97
2018-07-29T18:20:57.216Z,3.20
2018-07-29T18:26:00.325Z,2.90
2018-07-29T18:31:03.467Z,3.57
2018-07-29T18:36:06.600Z,2.87
2018-07-29T18:41:09.720Z,2.97
2018-07-29T18:46:13.144Z,3.20
2018-07-29T18:51:16.280Z,3.33
2018-07-29T18:56:19.419Z,2.80
2018-07-29T19:01:22.629Z,3.27
2018-07-29T19:06:26.332Z,3.43
2018-07-29T19:11:29.428Z,3.70
2018-07-29T19:16:32.508Z,3.00
2018-07-29T19:21:35.610Z,3.10
2018-07-29T19:26:38.731Z,3.00
2018-07-29T19:31:41.836Z,3.40
2018-07-29T19:36:44.953Z,3.40
2018-07-29T19:41:48.108Z,3.30
2018-07-29T19:46:51.274Z,2.97
2018-07-29T19:51:54.153Z,3.70
2018-07-29T19:56:57.249Z,3.13
2018-07-29T20:02:00.352Z,3.57
2018-07-29T20:07:03.606Z,3.57
2018-07-29T20:12:07.328Z,3.77
2018-07-29T20:17:11.151Z,3.70
2018-07-29T20:22:14.287Z,3.50
2018-07-29T20:27:17.386Z,3.87
2018-07-29T20:32:20.485Z,3.93
2018-07-29T20:37:24.408Z,3.30
2018-07-29T20:42:35.122Z,3.37
2018-07-29T20:47:38.250Z,3.07
2018-07-29T21:41:09.285Z,3.67
2018-07-29T21:46:12.464Z,4.30
2018-07-29T21:51:15.631Z,3.87
2018-07-29T21:56:18.752Z,4.40
2018-07-29T22:01:21.878Z,4.87
2018-07-29T22:11:34.548Z,4.23
2018-07-29T22:16:37.700Z,4.70
2018-07-29T22:21:40.889Z,5.00
2018-07-29T22:27:01.656Z,4.70
2018-07-29T22:32:10.661Z,4.30
2018-07-29T22:37:13.888Z,4.23
2018-07-29T22:42:17.032Z,4.47
2018-07-29T22:47:20.201Z,5.07
2018-07-29T22:52:23.317Z,5.63
2018-07-29T22:57:26.420Z,5.27
2018-07-29T23:02:29.532Z,4.80
2018-07-29T23:07:32.652Z,5.00
2018-07-29T23:12:36.716Z,5.50
2018-07-29T23:17:39.832Z,5.30
2018-07-29T23:22:43.344Z,4.93
2018-07-29T23:27:46.456Z,4.57
2018-07-29T23:32:49.556Z,4.67
2018-07-29T23:37:52.670Z,5.10
2018-07-29T23:42:55.835Z,4.90
2018-07-29T23:47:58.956Z,5.13
2018-07-29T23:53:02.076Z,5.10
2018-07-29T23:58:05.371Z,6.30
